sensor_id;sensor_type;location;lat;lon;timestamp;P1;durP1;ratioP1;P2;durP2;ratioP2
39256;SDS011;24958;48.066;11.038;2022-07-06T00:01:00;2.50;;;2.30;;
39256;SDS011;24958;48.066;11.038;2022-07-06T00:03:26;2.30;;;2.10;;
39256;SDS011;24958;48.066;11.038;2022-07-06T00:05:52;2.30;;;2.15;;
39256;SDS011;24958;48.066;11.038;2022-07-06T00:08:18;2.15;;;2.00;;
39256;SDS011;24958;48.066;11.038;2022-07-06T00:10:44;2.58;;;2.08;;
39256;SDS011;24958;48.066;11.038;2022-07-06T00:13:10;2.65;;;1.88;;
39256;SDS011;24958;48.066;11.038;2022-07-06T00:15:35;2.25;;;2.05;;
39256;SDS011;24958;48.066;11.038;2022-07-06T00:18:01;2.05;;;1.95;;
39256;SDS011;24958;48.066;11.038;2022-07-06T00:20:27;1.92;;;1.83;;
39256;SDS011;24958;48.066;11.038;2022-07-06T00:22:53;2.17;;;1.98;;
39256;SDS011;24958;48.066;11.038;2022-07-06T00:25:19;2.05;;;1.92;;
39256;SDS011;24958;48.066;11.038;2022-07-06T00:27:45;2.35;;;1.80;;
39256;SDS011;24958;48.066;11.038;2022-07-06T00:30:11;1.90;;;1.70;;
39256;SDS011;24958;48.066;11.038;2022-07-06T00:32:37;1.80;;;1.70;;
39256;SDS011;24958;48.066;11.038;2022-07-06T00:35:03;1.90;;;1.70;;
39256;SDS011;24958;48.066;11.038;2022-07-06T00:37:30;1.75;;;1.65;;
39256;SDS011;24958;48.066;11.038;2022-07-06T00:39:56;1.90;;;1.77;;
39256;SDS011;24958;48.066;11.038;2022-07-06T00:42:22;1.80;;;1.70;;
39256;SDS011;24958;48.066;11.038;2022-07-06T00:44:49;1.92;;;1.83;;
39256;SDS011;24958;48.066;11.038;2022-07-06T00:47:15;1.70;;;1.60;;
39256;SDS011;24958;48.066;11.038;2022-07-06T00:49:41;2.10;;;2.00;;
39256;SDS011;24958;48.066;11.038;2022-07-06T00:52:26;1.80;;;1.70;;
39256;SDS011;24958;48.066;11.038;2022-07-06T00:54:51;1.98;;;1.70;;
39256;SDS011;24958;48.066;11.038;2022-07-06T00:57:18;1.77;;;1.67;;
39256;SDS011;24958;48.066;11.038;2022-07-06T00:59:44;2.22;;;1.70;;
39256;SDS011;24958;48.066;11.038;2022-07-06T01:02:10;1.80;;;1.70;;
39256;SDS011;24958;48.066;11.038;2022-07-06T01:04:36;2.00;;;1.83;;
39256;SDS011;24958;48.066;11.038;2022-07-06T01:07:02;1.88;;;1.77;;
39256;SDS011;24958;48.066;11.038;2022-07-06T01:09:28;2.55;;;1.80;;
39256;SDS011;24958;48.066;11.038;2022-07-06T01:11:54;1.90;;;1.80;;
39256;SDS011;24958;48.066;11.038;2022-07-06T01:14:20;1.92;;;1.83;;
39256;SDS011;24958;48.066;11.038;2022-07-06T01:16:47;1.75;;;1.65;;
39256;SDS011;24958;48.066;11.038;2022-07-06T01:19:13;1.95;;;1.85;;
39256;SDS011;24958;48.066;11.038;2022-07-06T01:21:39;2.03;;;1.90;;
39256;SDS011;24958;48.066;11.038;2022-07-06T01:24:05;1.90;;;1.80;;
39256;SDS011;24958;48.066;11.038;2022-07-06T01:26:32;1.73;;;1.63;;
39256;SDS011;24958;48.066;11.038;2022-07-06T01:28:58;2.00;;;1.90;;
39256;SDS011;24958;48.066;11.038;2022-07-06T01:31:24;1.90;;;1.80;;
39256;SDS011;24958;48.066;11.038;2022-07-06T01:33:51;1.85;;;1.75;;
39256;SDS011;24958;48.066;11.038;2022-07-06T01:36:18;2.15;;;1.90;;
39256;SDS011;24958;48.066;11.038;2022-07-06T01:38:48;2.00;;;1.90;;
39256;SDS011;24958;48.066;11.038;2022-07-06T01:41:14;1.80;;;1.70;;
39256;SDS011;24958;48.066;11.038;2022-07-06T01:43:40;2.10;;;2.00;;
39256;SDS011;24958;48.066;11.038;2022-07-06T01:46:06;2.10;;;2.00;;
39256;SDS011;24958;48.066;11.038;2022-07-06T01:48:32;1.90;;;1.80;;
39256;SDS011;24958;48.066;11.038;2022-07-06T01:50:58;2.30;;;2.10;;
39256;SDS011;24958;48.066;11.038;2022-07-06T01:53:24;2.13;;;1.80;;
39256;SDS011;24958;48.066;11.038;2022-07-06T01:55:50;2.33;;;2.13;;
39256;SDS011;24958;48.066;11.038;2022-07-06T01:58:16;2.38;;;2.03;;
39256;SDS011;24958;48.066;11.038;2022-07-06T02:00:43;2.30;;;2.10;;
39256;SDS011;24958;48.066;11.038;2022-07-06T02:03:09;2.28;;;2.15;;
39256;SDS011;24958;48.066;11.038;2022-07-06T02:05:35;2.65;;;1.98;;
39256;SDS011;24958;48.066;11.038;2022-07-06T02:08:01;2.42;;;2.22;;
39256;SDS011;24958;48.066;11.038;2022-07-06T02:10:27;2.30;;;2.10;;
39256;SDS011;24958;48.066;11.038;2022-07-06T02:12:53;2.22;;;2.10;;
39256;SDS011;24958;48.066;11.038;2022-07-06T02:15:19;2.20;;;2.00;;
39256;SDS011;24958;48.066;11.038;2022-07-06T02:17:45;3.65;;;2.22;;
39256;SDS011;24958;48.066;11.038;2022-07-06T02:20:11;2.75;;;2.10;;
39256;SDS011;24958;48.066;11.038;2022-07-06T02:22:37;2.53;;;2.17;;
39256;SDS011;24958;48.066;11.038;2022-07-06T02:25:03;2.35;;;2.20;;
39256;SDS011;24958;48.066;11.038;2022-07-06T02:27:29;2.30;;;2.10;;
39256;SDS011;24958;48.066;11.038;2022-07-06T02:29:55;2.70;;;2.50;;
39256;SDS011;24958;48.066;11.038;2022-07-06T02:32:22;2.35;;;2.20;;
39256;SDS011;24958;48.066;11.038;2022-07-06T02:34:48;2.63;;;2.42;;
39256;SDS011;24958;48.066;11.038;2022-07-06T02:37:14;2.47;;;2.28;;
39256;SDS011;24958;48.066;11.038;2022-07-06T02:39:40;2.58;;;2.30;;
39256;SDS011;24958;48.066;11.038;2022-07-06T02:42:06;2.25;;;2.15;;
39256;SDS011;24958;48.066;11.038;2022-07-06T02:44:32;2.40;;;2.20;;
39256;SDS011;24958;48.066;11.038;2022-07-06T02:46:58;2.65;;;2.10;;
39256;SDS011;24958;48.066;11.038;2022-07-06T02:49:24;2.25;;;1.90;;
39256;SDS011;24958;48.066;11.038;2022-07-06T02:51:49;2.30;;;2.10;;
39256;SDS011;24958;48.066;11.038;2022-07-06T02:54:15;2.33;;;2.10;;
39256;SDS011;24958;48.066;11.038;2022-07-06T02:56:41;2.53;;;2.35;;
39256;SDS011;24958;48.066;11.038;2022-07-06T02:59:07;2.50;;;2.30;;
39256;SDS011;24958;48.066;11.038;2022-07-06T03:01:33;2.33;;;2.22;;
39256;SDS011;24958;48.066;11.038;2022-07-06T03:03:59;2.50;;;2.20;;
39256;SDS011;24958;48.066;11.038;2022-07-06T03:06:25;2.35;;;2.25;;
39256;SDS011;24958;48.066;11.038;2022-07-06T03:08:51;2.53;;;2.33;;
39256;SDS011;24958;48.066;11.038;2022-07-06T03:11:17;2.40;;;2.20;;
39256;SDS011;24958;48.066;11.038;2022-07-06T03:13:43;2.58;;;2.30;;
39256;SDS011;24958;48.066;11.038;2022-07-06T03:16:09;2.58;;;2.30;;
39256;SDS011;24958;48.066;11.038;2022-07-06T03:18:35;2.67;;;2.47;;
39256;SDS011;24958;48.066;11.038;2022-07-06T03:21:01;3.03;;;2.70;;
39256;SDS011;24958;48.066;11.038;2022-07-06T03:23:29;2.55;;;2.38;;
39256;SDS011;24958;48.066;11.038;2022-07-06T03:25:55;2.78;;;2.58;;
39256;SDS011;24958;48.066;11.038;2022-07-06T03:28:21;2.58;;;2.38;;
39256;SDS011;24958;48.066;11.038;2022-07-06T03:30:47;2.88;;;2.42;;
39256;SDS011;24958;48.066;11.038;2022-07-06T03:33:13;2.60;;;2.40;;
39256;SDS011;24958;48.066;11.038;2022-07-06T03:35:39;2.55;;;2.40;;
39256;SDS011;24958;48.066;11.038;2022-07-06T03:38:05;2.55;;;2.30;;
39256;SDS011;24958;48.066;11.038;2022-07-06T03:40:31;2.80;;;2.60;;
39256;SDS011;24958;48.066;11.038;2022-07-06T03:42:57;2.92;;;2.70;;
39256;SDS011;24958;48.066;11.038;2022-07-06T03:45:23;2.30;;;2.20;;
39256;SDS011;24958;48.066;11.038;2022-07-06T03:47:49;2.67;;;2.47;;
39256;SDS011;24958;48.066;11.038;2022-07-06T03:50:14;2.80;;;2.60;;
39256;SDS011;24958;48.066;11.038;2022-07-06T03:52:40;3.05;;;2.45;;
39256;SDS011;24958;48.066;11.038;2022-07-06T03:55:10;2.40;;;2.25;;
39256;SDS011;24958;48.066;11.038;2022-07-06T03:57:36;2.85;;;2.65;;
39256;SDS011;24958;48.066;11.038;2022-07-06T04:00:03;2.60;;;2.50;;
39256;SDS011;24958;48.066;11.038;2022-07-06T04:02:29;2.80;;;2.58;;
39256;SDS011;24958;48.066;11.038;2022-07-06T04:04:56;2.63;;;2.42;;
39256;SDS011;24958;48.066;11.038;2022-07-06T04:07:22;2.60;;;2.47;;
39256;SDS011;24958;48.066;11.038;2022-07-06T04:09:48;2.67;;;2.47;;
39256;SDS011;24958;48.066;11.038;2022-07-06T04:12:14;2.75;;;2.50;;
39256;SDS011;24958;48.066;11.038;2022-07-06T04:14:40;2.80;;;2.60;;
39256;SDS011;24958;48.066;11.038;2022-07-06T04:17:06;2.75;;;2.58;;
39256;SDS011;24958;48.066;11.038;2022-07-06T04:19:51;3.08;;;2.50;;
39256;SDS011;24958;48.066;11.038;2022-07-06T04:22:16;2.65;;;2.45;;
39256;SDS011;24958;48.066;11.038;2022-07-06T04:24:42;2.50;;;2.40;;
39256;SDS011;24958;48.066;11.038;2022-07-06T04:27:08;2.70;;;2.50;;
39256;SDS011;24958;48.066;11.038;2022-07-06T04:29:34;2.95;;;2.75;;
39256;SDS011;24958;48.066;11.038;2022-07-06T04:32:01;2.85;;;2.60;;
39256;SDS011;24958;48.066;11.038;2022-07-06T04:34:27;2.72;;;2.38;;
39256;SDS011;24958;48.066;11.038;2022-07-06T04:36:53;2.88;;;2.60;;
39256;SDS011;24958;48.066;11.038;2022-07-06T04:39:19;3.20;;;3.00;;
39256;SDS011;24958;48.066;11.038;2022-07-06T04:41:45;3.03;;;2.72;;
39256;SDS011;24958;48.066;11.038;2022-07-06T04:44:11;2.95;;;2.75;;
39256;SDS011;24958;48.066;11.038;2022-07-06T04:46:37;3.10;;;2.90;;
39256;SDS011;24958;48.066;11.038;2022-07-06T04:49:03;4.93;;;3.17;;
39256;SDS011;24958;48.066;11.038;2022-07-06T04:51:29;3.15;;;2.90;;
39256;SDS011;24958;48.066;11.038;2022-07-06T04:53:55;3.13;;;2.92;;
39256;SDS011;24958;48.066;11.038;2022-07-06T04:56:22;3.33;;;3.03;;
39256;SDS011;24958;48.066;11.038;2022-07-06T04:58:48;5.40;;;3.20;;
39256;SDS011;24958;48.066;11.038;2022-07-06T05:01:14;3.63;;;3.20;;
39256;SDS011;24958;48.066;11.038;2022-07-06T05:03:40;3.53;;;3.22;;
39256;SDS011;24958;48.066;11.038;2022-07-06T05:06:06;3.40;;;3.10;;
39256;SDS011;24958;48.066;11.038;2022-07-06T05:08:33;3.35;;;3.05;;
39256;SDS011;24958;48.066;11.038;2022-07-06T05:10:59;3.38;;;3.17;;
39256;SDS011;24958;48.066;11.038;2022-07-06T05:13:25;3.10;;;2.90;;
39256;SDS011;24958;48.066;11.038;2022-07-06T05:15:51;2.92;;;2.72;;
39256;SDS011;24958;48.066;11.038;2022-07-06T05:18:17;3.92;;;2.80;;
39256;SDS011;24958;48.066;11.038;2022-07-06T05:20:43;3.90;;;2.90;;
39256;SDS011;24958;48.066;11.038;2022-07-06T05:23:09;2.70;;;2.50;;
39256;SDS011;24958;48.066;11.038;2022-07-06T05:25:35;2.90;;;2.67;;
39256;SDS011;24958;48.066;11.038;2022-07-06T05:28:02;3.90;;;2.85;;
39256;SDS011;24958;48.066;11.038;2022-07-06T05:30:28;2.80;;;2.60;;
39256;SDS011;24958;48.066;11.038;2022-07-06T05:32:54;3.03;;;2.83;;
39256;SDS011;24958;48.066;11.038;2022-07-06T05:35:20;2.80;;;2.60;;
39256;SDS011;24958;48.066;11.038;2022-07-06T05:37:46;2.67;;;2.47;;
39256;SDS011;24958;48.066;11.038;2022-07-06T05:40:12;3.00;;;2.80;;
39256;SDS011;24958;48.066;11.038;2022-07-06T05:42:38;2.80;;;2.60;;
39256;SDS011;24958;48.066;11.038;2022-07-06T05:45:04;2.90;;;2.70;;
39256;SDS011;24958;48.066;11.038;2022-07-06T05:47:31;3.38;;;2.92;;
39256;SDS011;24958;48.066;11.038;2022-07-06T05:50:16;3.08;;;2.78;;
39256;SDS011;24958;48.066;11.038;2022-07-06T05:52:43;3.58;;;2.60;;
39256;SDS011;24958;48.066;11.038;2022-07-06T05:55:10;3.13;;;2.83;;
39256;SDS011;24958;48.066;11.038;2022-07-06T05:57:36;2.72;;;2.53;;
39256;SDS011;24958;48.066;11.038;2022-07-06T06:00:03;3.40;;;2.80;;
39256;SDS011;24958;48.066;11.038;2022-07-06T06:02:36;3.00;;;2.80;;
39256;SDS011;24958;48.066;11.038;2022-07-06T06:05:03;4.03;;;3.00;;
39256;SDS011;24958;48.066;11.038;2022-07-06T06:07:29;3.00;;;2.80;;
39256;SDS011;24958;48.066;11.038;2022-07-06T06:09:55;3.15;;;2.95;;
39256;SDS011;24958;48.066;11.038;2022-07-06T06:12:21;2.83;;;2.63;;
39256;SDS011;24958;48.066;11.038;2022-07-06T06:14:46;2.75;;;2.55;;
39256;SDS011;24958;48.066;11.038;2022-07-06T06:17:12;4.05;;;2.80;;
39256;SDS011;24958;48.066;11.038;2022-07-06T06:19:38;4.63;;;2.60;;
39256;SDS011;24958;48.066;11.038;2022-07-06T06:22:04;2.80;;;2.60;;
39256;SDS011;24958;48.066;11.038;2022-07-06T06:24:31;3.40;;;3.10;;
39256;SDS011;24958;48.066;11.038;2022-07-06T06:26:58;3.10;;;2.78;;
39256;SDS011;24958;48.066;11.038;2022-07-06T06:29:24;3.45;;;2.78;;
39256;SDS011;24958;48.066;11.038;2022-07-06T06:31:50;3.30;;;3.00;;
39256;SDS011;24958;48.066;11.038;2022-07-06T06:34:16;3.15;;;2.88;;
39256;SDS011;24958;48.066;11.038;2022-07-06T06:36:42;2.85;;;2.58;;
39256;SDS011;24958;48.066;11.038;2022-07-06T06:39:08;3.75;;;2.70;;
39256;SDS011;24958;48.066;11.038;2022-07-06T06:41:34;2.72;;;2.53;;
39256;SDS011;24958;48.066;11.038;2022-07-06T06:44:00;3.72;;;3.40;;
39256;SDS011;24958;48.066;11.038;2022-07-06T06:46:26;2.97;;;2.78;;
39256;SDS011;24958;48.066;11.038;2022-07-06T06:48:52;3.55;;;3.25;;
39256;SDS011;24958;48.066;11.038;2022-07-06T06:51:18;3.03;;;2.70;;
39256;SDS011;24958;48.066;11.038;2022-07-06T06:53:45;3.45;;;3.15;;
39256;SDS011;24958;48.066;11.038;2022-07-06T06:56:11;3.13;;;2.60;;
39256;SDS011;24958;48.066;11.038;2022-07-06T06:58:37;3.15;;;2.85;;
39256;SDS011;24958;48.066;11.038;2022-07-06T07:01:03;3.90;;;3.05;;
39256;SDS011;24958;48.066;11.038;2022-07-06T07:03:30;3.55;;;3.08;;
39256;SDS011;24958;48.066;11.038;2022-07-06T07:05:56;2.97;;;2.67;;
39256;SDS011;24958;48.066;11.038;2022-07-06T07:08:22;3.85;;;3.25;;
39256;SDS011;24958;48.066;11.038;2022-07-06T07:10:48;3.50;;;3.20;;
39256;SDS011;24958;48.066;11.038;2022-07-06T07:13:14;3.03;;;2.83;;
39256;SDS011;24958;48.066;11.038;2022-07-06T07:15:40;3.53;;;3.05;;
39256;SDS011;24958;48.066;11.038;2022-07-06T07:18:06;3.83;;;2.58;;
39256;SDS011;24958;48.066;11.038;2022-07-06T07:20:32;3.83;;;2.92;;
39256;SDS011;24958;48.066;11.038;2022-07-06T07:22:58;2.65;;;2.45;;
39256;SDS011;24958;48.066;11.038;2022-07-06T07:25:24;3.65;;;3.35;;
39256;SDS011;24958;48.066;11.038;2022-07-06T07:27:50;3.00;;;2.80;;
39256;SDS011;24958;48.066;11.038;2022-07-06T07:30:16;3.95;;;3.55;;
39256;SDS011;24958;48.066;11.038;2022-07-06T07:32:42;3.42;;;3.00;;
39256;SDS011;24958;48.066;11.038;2022-07-06T07:35:08;3.08;;;2.78;;
39256;SDS011;24958;48.066;11.038;2022-07-06T07:37:34;3.40;;;3.10;;
39256;SDS011;24958;48.066;11.038;2022-07-06T07:40:01;5.05;;;3.05;;
39256;SDS011;24958;48.066;11.038;2022-07-06T07:42:29;3.33;;;3.03;;
39256;SDS011;24958;48.066;11.038;2022-07-06T07:44:55;3.42;;;3.13;;
39256;SDS011;24958;48.066;11.038;2022-07-06T07:47:21;3.50;;;3.20;;
39256;SDS011;24958;48.066;11.038;2022-07-06T07:49:47;4.20;;;3.75;;
39256;SDS011;24958;48.066;11.038;2022-07-06T07:52:13;4.28;;;2.85;;
39256;SDS011;24958;48.066;11.038;2022-07-06T07:54:39;3.03;;;2.65;;
39256;SDS011;24958;48.066;11.038;2022-07-06T07:57:05;3.35;;;2.95;;
39256;SDS011;24958;48.066;11.038;2022-07-06T07:59:31;3.60;;;3.30;;
39256;SDS011;24958;48.066;11.038;2022-07-06T08:01:57;4.53;;;3.35;;
39256;SDS011;24958;48.066;11.038;2022-07-06T08:04:23;3.45;;;3.08;;
39256;SDS011;24958;48.066;11.038;2022-07-06T08:06:50;3.40;;;3.17;;
39256;SDS011;24958;48.066;11.038;2022-07-06T08:09:16;3.50;;;3.30;;
39256;SDS011;24958;48.066;11.038;2022-07-06T08:11:43;4.63;;;3.33;;
39256;SDS011;24958;48.066;11.038;2022-07-06T08:14:09;3.95;;;3.65;;
39256;SDS011;24958;48.066;11.038;2022-07-06T08:16:35;3.47;;;3.17;;
39256;SDS011;24958;48.066;11.038;2022-07-06T08:19:01;3.80;;;3.35;;
39256;SDS011;24958;48.066;11.038;2022-07-06T08:21:27;3.85;;;3.55;;
39256;SDS011;24958;48.066;11.038;2022-07-06T08:23:54;3.70;;;3.40;;
39256;SDS011;24958;48.066;11.038;2022-07-06T08:26:20;3.70;;;2.95;;
39256;SDS011;24958;48.066;11.038;2022-07-06T08:28:46;4.07;;;3.40;;
39256;SDS011;24958;48.066;11.038;2022-07-06T08:31:12;3.30;;;3.00;;
39256;SDS011;24958;48.066;11.038;2022-07-06T08:33:38;3.53;;;3.20;;
39256;SDS011;24958;48.066;11.038;2022-07-06T08:36:04;3.95;;;3.60;;
39256;SDS011;24958;48.066;11.038;2022-07-06T08:38:30;4.68;;;3.38;;
39256;SDS011;24958;48.066;11.038;2022-07-06T08:40:56;3.92;;;3.53;;
39256;SDS011;24958;48.066;11.038;2022-07-06T08:43:23;4.57;;;3.15;;
39256;SDS011;24958;48.066;11.038;2022-07-06T08:45:49;3.58;;;3.28;;
39256;SDS011;24958;48.066;11.038;2022-07-06T08:48:15;4.75;;;3.63;;
39256;SDS011;24958;48.066;11.038;2022-07-06T08:50:42;3.40;;;3.20;;
39256;SDS011;24958;48.066;11.038;2022-07-06T08:53:08;3.80;;;3.50;;
39256;SDS011;24958;48.066;11.038;2022-07-06T08:55:34;5.07;;;3.70;;
39256;SDS011;24958;48.066;11.038;2022-07-06T08:58:01;4.82;;;3.70;;
39256;SDS011;24958;48.066;11.038;2022-07-06T09:00:27;5.25;;;3.70;;
39256;SDS011;24958;48.066;11.038;2022-07-06T09:02:53;4.35;;;3.60;;
39256;SDS011;24958;48.066;11.038;2022-07-06T09:05:22;3.65;;;3.30;;
39256;SDS011;24958;48.066;11.038;2022-07-06T09:07:49;3.30;;;3.00;;
39256;SDS011;24958;48.066;11.038;2022-07-06T09:10:19;3.90;;;3.30;;
39256;SDS011;24958;48.066;11.038;2022-07-06T09:12:46;3.60;;;3.30;;
39256;SDS011;24958;48.066;11.038;2022-07-06T09:15:12;3.53;;;3.22;;
39256;SDS011;24958;48.066;11.038;2022-07-06T09:17:39;3.78;;;3.20;;
39256;SDS011;24958;48.066;11.038;2022-07-06T09:20:09;3.60;;;2.97;;
39256;SDS011;24958;48.066;11.038;2022-07-06T09:22:35;3.90;;;3.60;;
39256;SDS011;24958;48.066;11.038;2022-07-06T09:25:08;3.78;;;3.53;;
39256;SDS011;24958;48.066;11.038;2022-07-06T09:27:38;3.50;;;3.20;;
39256;SDS011;24958;48.066;11.038;2022-07-06T09:30:05;3.80;;;3.45;;
39256;SDS011;24958;48.066;11.038;2022-07-06T09:32:32;3.58;;;3.28;;
39256;SDS011;24958;48.066;11.038;2022-07-06T09:35:03;3.75;;;3.40;;
39256;SDS011;24958;48.066;11.038;2022-07-06T09:37:30;3.58;;;3.28;;
39256;SDS011;24958;48.066;11.038;2022-07-06T09:39:56;3.50;;;3.20;;
39256;SDS011;24958;48.066;11.038;2022-07-06T09:42:25;3.20;;;3.00;;
39256;SDS011;24958;48.066;11.038;2022-07-06T09:44:51;3.50;;;3.20;;
39256;SDS011;24958;48.066;11.038;2022-07-06T09:47:18;3.47;;;3.28;;
39256;SDS011;24958;48.066;11.038;2022-07-06T09:49:45;3.67;;;3.38;;
39256;SDS011;24958;48.066;11.038;2022-07-06T09:52:11;4.05;;;3.60;;
39256;SDS011;24958;48.066;11.038;2022-07-06T09:54:39;3.45;;;3.25;;
39256;SDS011;24958;48.066;11.038;2022-07-06T09:57:06;4.90;;;3.50;;
39256;SDS011;24958;48.066;11.038;2022-07-06T09:59:33;3.20;;;3.00;;
39256;SDS011;24958;48.066;11.038;2022-07-06T10:02:01;3.63;;;3.22;;
39256;SDS011;24958;48.066;11.038;2022-07-06T10:04:28;3.17;;;2.95;;
39256;SDS011;24958;48.066;11.038;2022-07-06T10:06:54;3.38;;;2.90;;
39256;SDS011;24958;48.066;11.038;2022-07-06T10:09:21;3.70;;;3.08;;
39256;SDS011;24958;48.066;11.038;2022-07-06T10:11:51;3.30;;;3.00;;
39256;SDS011;24958;48.066;11.038;2022-07-06T10:14:18;3.88;;;3.50;;
39256;SDS011;24958;48.066;11.038;2022-07-06T10:16:45;3.47;;;3.17;;
39256;SDS011;24958;48.066;11.038;2022-07-06T10:19:13;3.83;;;3.53;;
39256;SDS011;24958;48.066;11.038;2022-07-06T10:21:39;3.58;;;3.20;;
39256;SDS011;24958;48.066;11.038;2022-07-06T10:24:06;3.53;;;3.22;;
39256;SDS011;24958;48.066;11.038;2022-07-06T10:26:32;4.78;;;3.53;;
39256;SDS011;24958;48.066;11.038;2022-07-06T10:28:59;3.53;;;3.22;;
39256;SDS011;24958;48.066;11.038;2022-07-06T10:31:25;3.22;;;3.03;;
39256;SDS011;24958;48.066;11.038;2022-07-06T10:33:53;3.58;;;3.28;;
39256;SDS011;24958;48.066;11.038;2022-07-06T10:36:20;3.42;;;3.13;;
39256;SDS011;24958;48.066;11.038;2022-07-06T10:38:48;2.88;;;2.67;;
39256;SDS011;24958;48.066;11.038;2022-07-06T10:41:14;3.40;;;3.10;;
39256;SDS011;24958;48.066;11.038;2022-07-06T10:43:44;3.20;;;3.00;;
39256;SDS011;24958;48.066;11.038;2022-07-06T10:46:12;3.30;;;3.00;;
39256;SDS011;24958;48.066;11.038;2022-07-06T10:48:42;4.25;;;3.10;;
39256;SDS011;24958;48.066;11.038;2022-07-06T10:51:27;3.70;;;3.40;;
39256;SDS011;24958;48.066;11.038;2022-07-06T10:54:00;4.30;;;3.15;;
39256;SDS011;24958;48.066;11.038;2022-07-06T10:56:32;6.47;;;3.78;;
39256;SDS011;24958;48.066;11.038;2022-07-06T10:59:02;3.33;;;3.13;;
39256;SDS011;24958;48.066;11.038;2022-07-06T11:01:28;3.33;;;3.13;;
39256;SDS011;24958;48.066;11.038;2022-07-06T11:06:24;3.47;;;3.17;;
39256;SDS011;24958;48.066;11.038;2022-07-06T11:08:51;3.25;;;2.90;;
39256;SDS011;24958;48.066;11.038;2022-07-06T11:13:47;3.50;;;3.20;;
39256;SDS011;24958;48.066;11.038;2022-07-06T11:16:14;3.65;;;3.00;;
39256;SDS011;24958;48.066;11.038;2022-07-06T11:18:41;3.28;;;3.05;;
39256;SDS011;24958;48.066;11.038;2022-07-06T11:23:42;4.10;;;2.95;;
39256;SDS011;24958;48.066;11.038;2022-07-06T11:26:09;3.10;;;2.75;;
39256;SDS011;24958;48.066;11.038;2022-07-06T11:28:36;3.00;;;2.65;;
39256;SDS011;24958;48.066;11.038;2022-07-06T11:31:03;2.90;;;2.60;;
39256;SDS011;24958;48.066;11.038;2022-07-06T11:33:29;2.70;;;2.50;;
39256;SDS011;24958;48.066;11.038;2022-07-06T11:39:00;3.60;;;3.00;;
39256;SDS011;24958;48.066;11.038;2022-07-06T11:41:26;3.10;;;2.90;;
39256;SDS011;24958;48.066;11.038;2022-07-06T11:43:52;4.40;;;2.80;;
39256;SDS011;24958;48.066;11.038;2022-07-06T11:46:25;3.10;;;2.60;;
39256;SDS011;24958;48.066;11.038;2022-07-06T11:48:53;3.88;;;2.85;;
39256;SDS011;24958;48.066;11.038;2022-07-06T11:51:20;3.00;;;2.70;;
39256;SDS011;24958;48.066;11.038;2022-07-06T11:53:46;3.67;;;2.72;;
39256;SDS011;24958;48.066;11.038;2022-07-06T11:56:15;2.50;;;2.33;;
39256;SDS011;24958;48.066;11.038;2022-07-06T11:58:44;3.50;;;2.67;;
39256;SDS011;24958;48.066;11.038;2022-07-06T12:01:11;2.72;;;2.28;;
39256;SDS011;24958;48.066;11.038;2022-07-06T12:03:38;2.90;;;2.60;;
39256;SDS011;24958;48.066;11.038;2022-07-06T12:06:12;4.03;;;2.63;;
39256;SDS011;24958;48.066;11.038;2022-07-06T12:08:42;5.15;;;2.40;;
39256;SDS011;24958;48.066;11.038;2022-07-06T12:11:08;2.60;;;2.33;;
39256;SDS011;24958;48.066;11.038;2022-07-06T12:13:38;4.18;;;2.75;;
39256;SDS011;24958;48.066;11.038;2022-07-06T12:16:11;3.00;;;2.40;;
39256;SDS011;24958;48.066;11.038;2022-07-06T12:18:38;3.63;;;2.60;;
39256;SDS011;24958;48.066;11.038;2022-07-06T12:21:06;3.50;;;2.60;;
39256;SDS011;24958;48.066;11.038;2022-07-06T12:23:39;2.25;;;2.08;;
39256;SDS011;24958;48.066;11.038;2022-07-06T12:26:05;2.95;;;2.42;;
39256;SDS011;24958;48.066;11.038;2022-07-06T12:28:31;2.70;;;2.50;;
39256;SDS011;24958;48.066;11.038;2022-07-06T12:30:57;2.33;;;2.13;;
39256;SDS011;24958;48.066;11.038;2022-07-06T12:33:23;2.47;;;2.28;;
39256;SDS011;24958;48.066;11.038;2022-07-06T12:35:49;2.83;;;2.38;;
39256;SDS011;24958;48.066;11.038;2022-07-06T12:38:24;2.53;;;2.33;;
39256;SDS011;24958;48.066;11.038;2022-07-06T12:40:51;3.75;;;2.78;;
39256;SDS011;24958;48.066;11.038;2022-07-06T12:43:36;2.53;;;2.33;;
39256;SDS011;24958;48.066;11.038;2022-07-06T12:48:56;2.83;;;2.55;;
39256;SDS011;24958;48.066;11.038;2022-07-06T12:51:22;2.97;;;2.38;;
39256;SDS011;24958;48.066;11.038;2022-07-06T12:53:48;3.85;;;2.50;;
39256;SDS011;24958;48.066;11.038;2022-07-06T12:56:14;2.70;;;2.30;;
39256;SDS011;24958;48.066;11.038;2022-07-06T12:58:59;2.65;;;2.42;;
39256;SDS011;24958;48.066;11.038;2022-07-06T13:01:26;2.55;;;2.35;;
39256;SDS011;24958;48.066;11.038;2022-07-06T13:03:55;3.55;;;2.30;;
39256;SDS011;24958;48.066;11.038;2022-07-06T13:06:32;3.50;;;2.35;;
39256;SDS011;24958;48.066;11.038;2022-07-06T13:08:58;2.60;;;2.42;;
39256;SDS011;24958;48.066;11.038;2022-07-06T13:11:26;4.60;;;2.67;;
39256;SDS011;24958;48.066;11.038;2022-07-06T13:13:52;2.83;;;2.60;;
39256;SDS011;24958;48.066;11.038;2022-07-06T13:16:18;3.20;;;2.90;;
39256;SDS011;24958;48.066;11.038;2022-07-06T13:18:44;3.80;;;2.60;;
39256;SDS011;24958;48.066;11.038;2022-07-06T13:21:10;2.60;;;2.42;;
39256;SDS011;24958;48.066;11.038;2022-07-06T13:23:38;2.60;;;2.40;;
39256;SDS011;24958;48.066;11.038;2022-07-06T13:26:04;4.15;;;2.78;;
39256;SDS011;24958;48.066;11.038;2022-07-06T13:28:30;2.70;;;2.45;;
39256;SDS011;24958;48.066;11.038;2022-07-06T13:30:56;2.80;;;2.58;;
39256;SDS011;24958;48.066;11.038;2022-07-06T13:33:22;2.67;;;2.50;;
39256;SDS011;24958;48.066;11.038;2022-07-06T13:35:48;2.83;;;2.45;;
39256;SDS011;24958;48.066;11.038;2022-07-06T13:38:14;3.28;;;2.53;;
39256;SDS011;24958;48.066;11.038;2022-07-06T13:40:40;3.45;;;2.80;;
39256;SDS011;24958;48.066;11.038;2022-07-06T13:43:06;3.67;;;2.20;;
39256;SDS011;24958;48.066;11.038;2022-07-06T13:45:32;3.47;;;2.45;;
39256;SDS011;24958;48.066;11.038;2022-07-06T13:47:58;2.38;;;2.22;;
39256;SDS011;24958;48.066;11.038;2022-07-06T13:50:24;3.40;;;2.80;;
39256;SDS011;24958;48.066;11.038;2022-07-06T13:52:52;2.53;;;2.33;;
39256;SDS011;24958;48.066;11.038;2022-07-06T13:55:18;2.70;;;2.20;;
39256;SDS011;24958;48.066;11.038;2022-07-06T13:57:44;3.20;;;2.65;;
39256;SDS011;24958;48.066;11.038;2022-07-06T14:00:12;2.75;;;2.33;;
39256;SDS011;24958;48.066;11.038;2022-07-06T14:02:39;2.72;;;2.30;;
39256;SDS011;24958;48.066;11.038;2022-07-06T14:05:05;4.55;;;2.70;;
39256;SDS011;24958;48.066;11.038;2022-07-06T14:07:31;3.17;;;2.30;;
39256;SDS011;24958;48.066;11.038;2022-07-06T14:09:58;2.50;;;2.30;;
39256;SDS011;24958;48.066;11.038;2022-07-06T14:12:24;2.60;;;2.28;;
39256;SDS011;24958;48.066;11.038;2022-07-06T14:14:51;2.72;;;2.53;;
39256;SDS011;24958;48.066;11.038;2022-07-06T14:17:17;2.53;;;2.30;;
39256;SDS011;24958;48.066;11.038;2022-07-06T14:19:43;2.92;;;2.40;;
39256;SDS011;24958;48.066;11.038;2022-07-06T14:22:09;2.22;;;2.03;;
39256;SDS011;24958;48.066;11.038;2022-07-06T14:24:35;3.65;;;2.42;;
39256;SDS011;24958;48.066;11.038;2022-07-06T14:27:01;3.30;;;2.40;;
39256;SDS011;24958;48.066;11.038;2022-07-06T14:29:27;3.78;;;2.75;;
39256;SDS011;24958;48.066;11.038;2022-07-06T14:31:53;3.28;;;2.22;;
39256;SDS011;24958;48.066;11.038;2022-07-06T14:34:19;2.97;;;2.58;;
39256;SDS011;24958;48.066;11.038;2022-07-06T14:36:45;2.67;;;2.45;;
39256;SDS011;24958;48.066;11.038;2022-07-06T14:39:11;4.47;;;2.60;;
39256;SDS011;24958;48.066;11.038;2022-07-06T14:41:37;2.50;;;2.30;;
39256;SDS011;24958;48.066;11.038;2022-07-06T14:44:03;2.83;;;2.60;;